LFRVEGLF

Guest
Details From LFRV - Vannes Meucon
To EGLF - Farnborough
Flight Number -
Tags generated
Created
Modified
Stats Distance 227 nm / 421 km
Max Altitude 27,900 ft / 8,504 m
Waypoints 4
Social Downloads 0
Likes 0
Share VATSIM

Download

Looking for another format? Having issues loading an existing format? Contact us
Advertisement - Login to hide

Notes

Basic altitude profile: - Ascent Rate: 2500ft/min - Ascent Speed: 250kts - Cruise Altitude: 35000ft - Cruise Speed: 420kts - Descent Rate: 1500ft/min - Descent Speed: 250kts Options: - Use NATs: yes - Use PACOTS: yes - Use low airways: yes - Use high airways: yes

Route

LFRV LUSIT G272 BENIX EGLF

ID Type Via Altitude Latitude Longitude Leg Dist Tot Dist Heading (true) Name
O LFRV APT - 0 ft / 0 m 47.72326˚ -2.71851˚ - 0 nm - Vannes Meucon
LUSIT FIX - 27,900 ft / 8,504 m 49.21472˚ -1.79556˚ 96 nm 96 nm 22° / 23° -
BENIX FIX G272 (AWY-LO) 19,500 ft / 5,944 m 49.54667˚ -1.49000˚ 23 nm 120 nm 31° / 31° -
O EGLF APT - 0 ft / 0 m 51.27570˚ -0.77659˚ 107 nm 227 nm 14° / 15° Farnborough

Altitude Profile

Advertisement - Login to hide

Weather


0- 5 10 15 20 25 30 35+ Temperature / ° C

Clouds and Precipitation
Forecast for 2017-12-13 18:00 UTC. Updated 2 hours ago

Ground ~20,000 ft ~40,000 ft Winds

LFRV

Details ICAO LFRV (VNE)
Name Vannes Meucon
Region France
Timezone Europe/Paris (UTC+1.0)
Stats Elevation 439 ft / 134 m (AMSL)
Location 47.723264° -2.718513°
Runways 1
Magnetic Variation 0.922° W

METAR

LFRV 131900Z AUTO 28013KT 9999 FEW025 OVC230 09/06 Q1004

Decode

TAF

Not found

Departure Runways

ID Width Length Bearing (true) Bearing (mag) Surface Threshold Offset Overrun Length
04 148 ft / 45 m 5,006 ft / 1,526 m 39.13° 40.05° Asphalt 0 ft / 0 m 0 ft / 0 m
22 148 ft / 45 m 5,006 ft / 1,526 m 219.14° 220.06° Asphalt 0 ft / 0 m 0 ft / 0 m

EGLF

Details ICAO EGLF (FAB)
Name Farnborough
Region United Kingdom
Timezone Europe/London (UTC+0.0)
Stats Elevation 238 ft / 73 m (AMSL)
Location 51.275704° -0.776589°
Runways 1
Magnetic Variation 0.648° W

METAR

EGLF 131850Z 24009KT CAVOK 04/03 Q0992

Decode

TAF

Not found

Destination Runways

ID Width Length Bearing (true) Bearing (mag) Surface Threshold Offset Overrun Length
06 151 ft / 46 m 7,989 ft / 2,435 m 61.95° 62.60° Asphalt 1,762 ft / 537 m 0 ft / 0 m
24 151 ft / 46 m 7,989 ft / 2,435 m 241.98° 242.63° Asphalt 2,090 ft / 637 m 177 ft / 54 m

Approach Navaids

Runway Type Ident Frequency Range Bearing (true) Bearing (mag) Slope Elevation
06 Localiser IFRG 111.55 MHz 18 nm / 33 km 61.98° 62.63° - 228 ft / 69 m (AMSL)
06 Glidescope IFRG 111.55 MHz 10 nm / 19 km 61.97° 62.61° 3.50° 238 ft / 73 m (AMSL)
06 DME IFRG 111.55 MHz 18 nm / 33 km - - - 234 ft / 71 m (AMSL)
24 Localiser IFNB 111.55 MHz 18 nm / 33 km 241.95° 242.60° - 228 ft / 69 m (AMSL)
24 Glidescope IFNB 111.55 MHz 10 nm / 19 km 241.97° 242.61° 3.50° 238 ft / 73 m (AMSL)
24 DME IFNB 111.55 MHz 18 nm / 33 km - - - 234 ft / 71 m (AMSL)